Airfield :
LOGIN :

Register | Disclaimer

   EN    FR    IT 

 










Legend :    VFR   Marginal VFR   IFR   Intensive IFR   Very Intensive IFR
Visi :
Ceiling :
>= 8 km
>= 3000ft
5 to 8 km
1000 to 3000 ft
1500m to 5 km
500 to 1000 ft
800 to 1500m
200 to 500 ft
< 800m
< 200 ft
Symbols :   Thunderstorms  Fog  Heavy snow  Heavy precipitations  Wind > 20 kt
SIGMETs :     Misc.  Thunderstorms  Icing  Turbulence  Mountain Waves  Volcanic Ashes







- Airport Elevation : 856 ft
- IATA code : VGO


LEVX - Vigo Peinador

CURRENT METAR :
  • 300100Z VRB01KT 9999 BKN018 15/13 Q1019 TEMPO BKN012

EXPIRED METARs :
  • 300030Z VRB01KT 9999 BKN018 15/13 Q1019 TEMPO BKN012
  • 300000Z 00000KT 9999 BKN018 15/13 Q1019 TEMPO BKN012
  • 292330Z 00000KT 9999 BKN017 15/13 Q1019 TEMPO BKN012
  • 292300Z VRB01KT 9999 BKN016 15/13 Q1019 TEMPO BKN012
  • 292230Z VRB01KT 9999 BKN016 15/13 Q1019 TEMPO BKN012

TAF TAF LEVX
Valid from the 30 at 00:00 until the 31 at 00:00 UTC


292300Z 3000/3024 VRB04KT 8000 SCT014 BKN028 TX22/3014Z TN14/3006Z
TEMPO 3000/3009 3000 BR BKN010
PROB40
TEMPO 3000/3009 0800 BCFG BKN002 BKN005
BECMG 3011/3013 28010KT
BECMG 3018/3020 VRB04KT
No reported NOTAMs for that airfield.



MET'MAP, your aeronautical weather chart ! - Copyright ORBIFLY December 2007 - Disclaimer

ORBIFLY MET'MAP TEAM :

Programming & Development : Alexandra Zaïnal
Concept & Development : Baudouin d'Aumeries
Co-Development & Prog : Marc-Olivier Méhu
Technical & hardware support : Manuel Goepfert

Contact : metmap@orbifly.com




SOURCES & CREDITS :

   NOAA